ノヴォシビルスク の空港の天気 - METARとTAF

トルマチェヴォ空港(ノヴォシビルスク) ( UNNT / OVB ) - ロシア ノヴォシビルスク
飛行場実況気象(Metar)
観測時間04/26 17:00 OMST (04/26 11:00 UTC)
風向・風速西 8m/s
視程10km以上
天気現象
少しの雲 雲底高度 1710m
気温10℃
湿度34%
気圧1018hPa
METARUNNT 261100Z 28008MPS 9999 FEW056CB 10/M05 Q1018 R25/090070 R16/290160 NOSIG RMK QFE753/1004
過去の天気等 Google飛行場航空写真 Wunderground天気予報

過去48時間のMETAR

飛行場予報(TAF)
発表時間: 4/26 14:00 OMST (4/26 08:00 UTC)
予報対象時間: 26日15時 OMST ~ 27日15時 OMST
風向・風速西南西 9m/s 瞬間風速 15m/s
視程10km以上
天気現象弱いしゅう雨
全天の8割程度の積乱雲 雲底高度 610m
26日15時 OMST ~ 26日19時 OMST に一時的に
風向・風速西 15m/s 瞬間風速 20m/s
全天の8割程度の積乱雲 雲底高度 340m
26日19時 OMST ~ 26日21時 OMST に徐々に
風向・風速西北西 3m/s 瞬間風速 8m/s
27日7時 OMST ~ 27日9時 OMST に徐々に
風向・風速西南西 6m/s 瞬間風速 12m/s
TAF UNNT 260800Z 2609/2709 24009G15MPS 9999 -SHRA BKN020CB
TEMPO 2609/2613 26015G20MPS BKN011CB
BECMG 2613/2615 29003G08MPS
BECMG 2701/2703 25006G12MPS